Hlavní strana
METAR-TAF:

METAR-TAF

Letiště :

Memmingen, Německo

zeměpisná šířka: 47-59-33N, zeměpisná délka: 10-14-37E, výška: 633 m

Aktuální stav počasí

Zpráva byla vytvořena před 1 hodinou a 40 minutami, v 19:20 UTC
Bezvětří
Teplota 20°C
Vlhkost vzduchu 73%
Tlak 1021 hPa
Viditelnost 10 km a více
Žádná oblačnost pod 1500 m, nevyskytují se cumulonimby.

METAR: EDJA 191920Z 00000KT CAVOK 20/15 Q1021

Čas: 23:00 (21:00 UTC)

Předpověď počasí

Zpráva byla vytvořena před 4 hodinami a 0 minutami, v 17:00 UTC
Předpověď platná od 19 v 18 UTC do 20 v 03 UTC
Severoseverovýchodní vítr 5 kt
Viditelnost 10 km a více
Žádná oblačnost pod 1500 m, nevyskytují se cumulonimby.
Změna
od 19 v 19 UTC do 19 v 21 UTC
Jihojihozápadní vítr 5 kt

TAF: EDJA 191700Z 1918/2003 03005KT CAVOK BECMG 1919/1921 20005KT

Stav a předpovědi počasí z více než 4 000 letišť (zprávy METAR a TAF).

Červené a žluté tečky na mapě představují dostupné meteorologické stanice.

Když kurzor umístíte na tečku, zobrazí se název stanice.

Pak kliknutím zobrazíte stav a předpověď počasí.

Chcete-li změnit mapu, kliknutím na zelené tlačítko se znaménkem +mapu přiblížíte, kliknutím na zelené tlačítko se znaménkem – mapu oddálíte a kliknutím na zelené šipky přejdete na sousední mapy.


METAR-TAF: